sensor_id;sensor_type;location;lat;lon;timestamp;P1;durP1;ratioP1;P2;durP2;ratioP2
78960;SDS011;68362;45.970;12.646;2023-06-05T00:02:22;3.70;;;3.08;;
78960;SDS011;68362;45.970;12.646;2023-06-05T00:03:24;4.30;;;3.35;;
78960;SDS011;68362;45.970;12.646;2023-06-05T00:04:29;3.42;;;2.40;;
78960;SDS011;68362;45.970;12.646;2023-06-05T00:05:31;3.95;;;2.70;;
78960;SDS011;68362;45.970;12.646;2023-06-05T00:06:33;3.17;;;2.53;;
78960;SDS011;68362;45.970;12.646;2023-06-05T00:07:36;3.95;;;2.80;;
78960;SDS011;68362;45.970;12.646;2023-06-05T00:08:41;3.80;;;2.60;;
78960;SDS011;68362;45.970;12.646;2023-06-05T00:09:43;3.88;;;2.33;;
78960;SDS011;68362;45.970;12.646;2023-06-05T00:10:46;3.10;;;2.33;;
78960;SDS011;68362;45.970;12.646;2023-06-05T00:11:48;3.53;;;2.38;;
78960;SDS011;68362;45.970;12.646;2023-06-05T00:12:50;3.25;;;2.08;;
78960;SDS011;68362;45.970;12.646;2023-06-05T00:13:52;3.35;;;2.50;;
78960;SDS011;68362;45.970;12.646;2023-06-05T00:14:54;3.65;;;2.50;;
78960;SDS011;68362;45.970;12.646;2023-06-05T00:15:56;3.50;;;2.05;;
78960;SDS011;68362;45.970;12.646;2023-06-05T00:16:58;2.97;;;2.20;;
78960;SDS011;68362;45.970;12.646;2023-06-05T00:18:04;3.53;;;2.10;;
78960;SDS011;68362;45.970;12.646;2023-06-05T00:19:06;4.00;;;2.38;;
78960;SDS011;68362;45.970;12.646;2023-06-05T00:20:09;3.65;;;2.38;;
78960;SDS011;68362;45.970;12.646;2023-06-05T00:21:12;2.95;;;2.22;;
78960;SDS011;68362;45.970;12.646;2023-06-05T00:22:14;2.70;;;1.98;;
78960;SDS011;68362;45.970;12.646;2023-06-05T00:23:16;2.85;;;2.10;;
78960;SDS011;68362;45.970;12.646;2023-06-05T00:24:18;2.78;;;1.70;;
78960;SDS011;68362;45.970;12.646;2023-06-05T00:25:20;4.43;;;2.05;;
78960;SDS011;68362;45.970;12.646;2023-06-05T00:26:23;3.13;;;2.00;;
78960;SDS011;68362;45.970;12.646;2023-06-05T00:27:25;2.80;;;1.63;;
78960;SDS011;68362;45.970;12.646;2023-06-05T00:28:27;13.32;;;2.38;;
78960;SDS011;68362;45.970;12.646;2023-06-05T00:29:29;2.80;;;2.35;;
78960;SDS011;68362;45.970;12.646;2023-06-05T00:30:31;2.88;;;1.98;;
78960;SDS011;68362;45.970;12.646;2023-06-05T00:31:33;3.38;;;2.00;;
78960;SDS011;68362;45.970;12.646;2023-06-05T00:32:36;2.50;;;1.92;;
78960;SDS011;68362;45.970;12.646;2023-06-05T00:33:38;6.00;;;1.70;;
78960;SDS011;68362;45.970;12.646;2023-06-05T00:34:41;2.92;;;2.28;;
78960;SDS011;68362;45.970;12.646;2023-06-05T00:35:43;6.78;;;2.47;;
78960;SDS011;68362;45.970;12.646;2023-06-05T00:36:45;4.38;;;2.50;;
78960;SDS011;68362;45.970;12.646;2023-06-05T00:37:47;4.10;;;1.73;;
78960;SDS011;68362;45.970;12.646;2023-06-05T00:38:50;3.75;;;2.00;;
78960;SDS011;68362;45.970;12.646;2023-06-05T00:39:52;2.75;;;2.20;;
78960;SDS011;68362;45.970;12.646;2023-06-05T00:40:54;4.30;;;2.50;;
78960;SDS011;68362;45.970;12.646;2023-06-05T00:41:56;2.65;;;2.03;;
78960;SDS011;68362;45.970;12.646;2023-06-05T00:42:59;4.75;;;2.85;;
78960;SDS011;68362;45.970;12.646;2023-06-05T00:44:01;7.75;;;2.75;;
78960;SDS011;68362;45.970;12.646;2023-06-05T00:45:03;2.55;;;2.13;;
78960;SDS011;68362;45.970;12.646;2023-06-05T00:46:05;3.95;;;2.60;;
78960;SDS011;68362;45.970;12.646;2023-06-05T00:47:08;4.05;;;2.35;;
78960;SDS011;68362;45.970;12.646;2023-06-05T00:48:11;2.78;;;2.22;;
78960;SDS011;68362;45.970;12.646;2023-06-05T00:49:13;4.97;;;2.72;;
78960;SDS011;68362;45.970;12.646;2023-06-05T00:50:16;2.83;;;2.05;;
78960;SDS011;68362;45.970;12.646;2023-06-05T00:51:23;4.35;;;2.28;;
78960;SDS011;68362;45.970;12.646;2023-06-05T00:52:26;3.20;;;2.30;;
78960;SDS011;68362;45.970;12.646;2023-06-05T00:53:30;4.35;;;2.60;;
78960;SDS011;68362;45.970;12.646;2023-06-05T00:54:36;3.67;;;2.20;;
78960;SDS011;68362;45.970;12.646;2023-06-05T00:56:41;5.45;;;2.80;;
78960;SDS011;68362;45.970;12.646;2023-06-05T00:57:44;3.88;;;2.72;;
78960;SDS011;68362;45.970;12.646;2023-06-05T00:58:47;4.07;;;2.72;;
78960;SDS011;68362;45.970;12.646;2023-06-05T00:59:50;4.60;;;3.50;;
78960;SDS011;68362;45.970;12.646;2023-06-05T01:00:52;4.53;;;3.20;;
78960;SDS011;68362;45.970;12.646;2023-06-05T01:01:55;6.30;;;3.08;;
78960;SDS011;68362;45.970;12.646;2023-06-05T01:02:57;4.57;;;3.15;;
78960;SDS011;68362;45.970;12.646;2023-06-05T01:04:00;4.65;;;3.22;;
78960;SDS011;68362;45.970;12.646;2023-06-05T01:05:02;3.85;;;2.78;;
78960;SDS011;68362;45.970;12.646;2023-06-05T01:07:07;4.28;;;3.17;;
78960;SDS011;68362;45.970;12.646;2023-06-05T01:08:10;6.10;;;3.60;;
78960;SDS011;68362;45.970;12.646;2023-06-05T01:09:14;6.97;;;3.20;;
78960;SDS011;68362;45.970;12.646;2023-06-05T01:10:16;5.13;;;3.70;;
78960;SDS011;68362;45.970;12.646;2023-06-05T01:11:23;4.15;;;3.00;;
78960;SDS011;68362;45.970;12.646;2023-06-05T01:12:50;4.15;;;3.55;;
78960;SDS011;68362;45.970;12.646;2023-06-05T01:14:04;3.83;;;3.20;;
78960;SDS011;68362;45.970;12.646;2023-06-05T01:15:14;5.65;;;3.70;;
78960;SDS011;68362;45.970;12.646;2023-06-05T01:16:18;5.38;;;3.33;;
78960;SDS011;68362;45.970;12.646;2023-06-05T01:17:20;4.55;;;3.85;;
78960;SDS011;68362;45.970;12.646;2023-06-05T01:18:26;4.78;;;3.90;;
78960;SDS011;68362;45.970;12.646;2023-06-05T01:19:28;4.88;;;3.72;;
78960;SDS011;68362;45.970;12.646;2023-06-05T01:20:33;4.68;;;3.22;;
78960;SDS011;68362;45.970;12.646;2023-06-05T01:21:43;6.18;;;3.80;;
78960;SDS011;68362;45.970;12.646;2023-06-05T01:22:51;5.88;;;3.90;;
78960;SDS011;68362;45.970;12.646;2023-06-05T01:23:56;5.10;;;3.35;;
78960;SDS011;68362;45.970;12.646;2023-06-05T01:24:59;4.60;;;3.60;;
78960;SDS011;68362;45.970;12.646;2023-06-05T01:26:03;5.25;;;3.50;;
78960;SDS011;68362;45.970;12.646;2023-06-05T01:28:33;5.55;;;3.55;;
78960;SDS011;68362;45.970;12.646;2023-06-05T01:29:40;4.47;;;3.55;;
78960;SDS011;68362;45.970;12.646;2023-06-05T01:33:22;5.63;;;3.20;;
78960;SDS011;68362;45.970;12.646;2023-06-05T01:34:30;7.47;;;3.47;;
78960;SDS011;68362;45.970;12.646;2023-06-05T01:35:32;5.70;;;3.50;;
78960;SDS011;68362;45.970;12.646;2023-06-05T01:36:36;5.00;;;3.88;;
78960;SDS011;68362;45.970;12.646;2023-06-05T01:37:40;6.35;;;3.38;;
78960;SDS011;68362;45.970;12.646;2023-06-05T01:38:44;4.25;;;3.53;;
78960;SDS011;68362;45.970;12.646;2023-06-05T01:39:53;4.75;;;3.90;;
78960;SDS011;68362;45.970;12.646;2023-06-05T01:41:00;6.30;;;4.22;;
78960;SDS011;68362;45.970;12.646;2023-06-05T01:42:10;6.28;;;4.00;;
78960;SDS011;68362;45.970;12.646;2023-06-05T01:43:14;7.28;;;3.90;;
78960;SDS011;68362;45.970;12.646;2023-06-05T01:44:17;5.15;;;3.95;;
78960;SDS011;68362;45.970;12.646;2023-06-05T01:45:19;4.53;;;3.40;;
78960;SDS011;68362;45.970;12.646;2023-06-05T01:46:22;6.35;;;3.92;;
78960;SDS011;68362;45.970;12.646;2023-06-05T01:47:26;6.80;;;3.83;;
78960;SDS011;68362;45.970;12.646;2023-06-05T01:48:28;7.20;;;3.75;;
78960;SDS011;68362;45.970;12.646;2023-06-05T01:49:32;5.57;;;2.75;;
78960;SDS011;68362;45.970;12.646;2023-06-05T01:50:35;3.80;;;2.80;;
78960;SDS011;68362;45.970;12.646;2023-06-05T01:51:39;4.80;;;3.40;;
78960;SDS011;68362;45.970;12.646;2023-06-05T01:52:41;4.40;;;3.03;;
78960;SDS011;68362;45.970;12.646;2023-06-05T01:53:43;3.97;;;3.25;;
78960;SDS011;68362;45.970;12.646;2023-06-05T01:54:50;5.80;;;3.42;;
78960;SDS011;68362;45.970;12.646;2023-06-05T01:55:54;4.85;;;2.88;;
78960;SDS011;68362;45.970;12.646;2023-06-05T01:56:58;7.18;;;3.10;;
78960;SDS011;68362;45.970;12.646;2023-06-05T01:58:01;3.92;;;2.88;;
78960;SDS011;68362;45.970;12.646;2023-06-05T01:59:04;4.78;;;2.88;;
78960;SDS011;68362;45.970;12.646;2023-06-05T02:00:09;5.85;;;4.13;;
78960;SDS011;68362;45.970;12.646;2023-06-05T02:01:15;4.30;;;3.28;;
78960;SDS011;68362;45.970;12.646;2023-06-05T02:02:18;4.63;;;3.22;;
78960;SDS011;68362;45.970;12.646;2023-06-05T02:03:20;5.13;;;2.92;;
78960;SDS011;68362;45.970;12.646;2023-06-05T02:04:22;3.88;;;2.58;;
78960;SDS011;68362;45.970;12.646;2023-06-05T02:05:25;5.22;;;3.50;;
78960;SDS011;68362;45.970;12.646;2023-06-05T02:06:34;4.50;;;2.83;;
78960;SDS011;68362;45.970;12.646;2023-06-05T02:07:45;4.28;;;3.20;;
78960;SDS011;68362;45.970;12.646;2023-06-05T02:08:56;4.32;;;3.63;;
78960;SDS011;68362;45.970;12.646;2023-06-05T02:09:58;3.72;;;2.92;;
78960;SDS011;68362;45.970;12.646;2023-06-05T02:11:03;4.32;;;3.17;;
78960;SDS011;68362;45.970;12.646;2023-06-05T02:12:11;4.93;;;3.15;;
78960;SDS011;68362;45.970;12.646;2023-06-05T02:13:17;4.07;;;2.80;;
78960;SDS011;68362;45.970;12.646;2023-06-05T02:14:20;4.10;;;2.92;;
78960;SDS011;68362;45.970;12.646;2023-06-05T02:15:24;4.43;;;3.20;;
78960;SDS011;68362;45.970;12.646;2023-06-05T02:16:27;4.35;;;3.10;;
78960;SDS011;68362;45.970;12.646;2023-06-05T02:17:31;6.00;;;3.47;;
78960;SDS011;68362;45.970;12.646;2023-06-05T02:18:35;3.22;;;2.63;;
78960;SDS011;68362;45.970;12.646;2023-06-05T02:19:39;4.05;;;3.15;;
78960;SDS011;68362;45.970;12.646;2023-06-05T02:20:41;4.88;;;3.10;;
78960;SDS011;68362;45.970;12.646;2023-06-05T02:21:44;3.50;;;2.72;;
78960;SDS011;68362;45.970;12.646;2023-06-05T02:22:46;6.97;;;3.13;;
78960;SDS011;68362;45.970;12.646;2023-06-05T02:23:51;4.13;;;3.08;;
78960;SDS011;68362;45.970;12.646;2023-06-05T02:24:55;4.07;;;3.17;;
78960;SDS011;68362;45.970;12.646;2023-06-05T02:25:58;3.70;;;2.70;;
78960;SDS011;68362;45.970;12.646;2023-06-05T02:27:00;4.13;;;3.03;;
78960;SDS011;68362;45.970;12.646;2023-06-05T02:28:02;5.28;;;3.20;;
78960;SDS011;68362;45.970;12.646;2023-06-05T02:29:04;5.60;;;2.90;;
78960;SDS011;68362;45.970;12.646;2023-06-05T02:30:07;4.25;;;2.70;;
78960;SDS011;68362;45.970;12.646;2023-06-05T02:31:10;5.18;;;3.03;;
78960;SDS011;68362;45.970;12.646;2023-06-05T02:32:18;4.82;;;3.25;;
78960;SDS011;68362;45.970;12.646;2023-06-05T02:33:20;5.40;;;2.88;;
78960;SDS011;68362;45.970;12.646;2023-06-05T02:34:23;4.82;;;3.13;;
78960;SDS011;68362;45.970;12.646;2023-06-05T02:35:26;6.50;;;3.35;;
78960;SDS011;68362;45.970;12.646;2023-06-05T02:36:28;6.43;;;3.35;;
78960;SDS011;68362;45.970;12.646;2023-06-05T02:37:35;5.72;;;3.50;;
78960;SDS011;68362;45.970;12.646;2023-06-05T02:38:39;6.20;;;3.15;;
78960;SDS011;68362;45.970;12.646;2023-06-05T02:39:41;5.60;;;3.67;;
78960;SDS011;68362;45.970;12.646;2023-06-05T02:40:43;6.25;;;3.63;;
78960;SDS011;68362;45.970;12.646;2023-06-05T02:41:45;4.60;;;3.25;;
78960;SDS011;68362;45.970;12.646;2023-06-05T02:42:48;5.88;;;3.60;;
78960;SDS011;68362;45.970;12.646;2023-06-05T02:43:50;4.20;;;3.30;;
78960;SDS011;68362;45.970;12.646;2023-06-05T02:44:52;3.75;;;2.70;;
78960;SDS011;68362;45.970;12.646;2023-06-05T02:45:54;3.92;;;3.00;;
78960;SDS011;68362;45.970;12.646;2023-06-05T02:46:56;4.82;;;2.97;;
78960;SDS011;68362;45.970;12.646;2023-06-05T02:47:59;4.40;;;2.88;;
78960;SDS011;68362;45.970;12.646;2023-06-05T02:49:01;4.47;;;3.15;;
78960;SDS011;68362;45.970;12.646;2023-06-05T02:50:03;5.57;;;2.75;;
78960;SDS011;68362;45.970;12.646;2023-06-05T02:51:06;5.90;;;2.63;;
78960;SDS011;68362;45.970;12.646;2023-06-05T02:52:09;5.05;;;2.67;;
78960;SDS011;68362;45.970;12.646;2023-06-05T02:53:11;3.75;;;2.20;;
78960;SDS011;68362;45.970;12.646;2023-06-05T02:54:13;6.15;;;3.10;;
78960;SDS011;68362;45.970;12.646;2023-06-05T02:55:15;5.45;;;2.63;;
78960;SDS011;68362;45.970;12.646;2023-06-05T02:56:19;6.05;;;2.90;;
78960;SDS011;68362;45.970;12.646;2023-06-05T02:57:23;5.07;;;2.72;;
78960;SDS011;68362;45.970;12.646;2023-06-05T02:58:28;5.32;;;2.47;;
78960;SDS011;68362;45.970;12.646;2023-06-05T02:59:30;4.65;;;2.60;;
78960;SDS011;68362;45.970;12.646;2023-06-05T03:00:33;4.38;;;2.30;;
78960;SDS011;68362;45.970;12.646;2023-06-05T03:01:35;3.00;;;2.40;;
78960;SDS011;68362;45.970;12.646;2023-06-05T03:02:37;4.57;;;3.05;;
78960;SDS011;68362;45.970;12.646;2023-06-05T03:03:40;4.05;;;2.28;;
78960;SDS011;68362;45.970;12.646;2023-06-05T03:04:42;3.50;;;2.17;;
78960;SDS011;68362;45.970;12.646;2023-06-05T03:05:44;5.47;;;2.00;;
78960;SDS011;68362;45.970;12.646;2023-06-05T03:06:47;4.28;;;1.90;;
78960;SDS011;68362;45.970;12.646;2023-06-05T03:07:51;3.97;;;2.58;;
78960;SDS011;68362;45.970;12.646;2023-06-05T03:08:54;4.32;;;2.80;;
78960;SDS011;68362;45.970;12.646;2023-06-05T03:09:57;3.20;;;2.38;;
78960;SDS011;68362;45.970;12.646;2023-06-05T03:11:00;2.90;;;1.75;;
78960;SDS011;68362;45.970;12.646;2023-06-05T03:12:03;2.58;;;1.85;;
78960;SDS011;68362;45.970;12.646;2023-06-05T03:13:06;3.08;;;2.30;;
78960;SDS011;68362;45.970;12.646;2023-06-05T03:14:08;3.00;;;2.25;;
78960;SDS011;68362;45.970;12.646;2023-06-05T03:15:10;3.47;;;2.30;;
78960;SDS011;68362;45.970;12.646;2023-06-05T03:17:15;3.13;;;1.80;;
78960;SDS011;68362;45.970;12.646;2023-06-05T03:18:17;3.50;;;2.50;;
78960;SDS011;68362;45.970;12.646;2023-06-05T03:19:19;4.50;;;3.17;;
78960;SDS011;68362;45.970;12.646;2023-06-05T03:20:23;4.30;;;2.55;;
78960;SDS011;68362;45.970;12.646;2023-06-05T03:21:24;4.80;;;2.53;;
78960;SDS011;68362;45.970;12.646;2023-06-05T03:22:27;3.35;;;2.13;;
78960;SDS011;68362;45.970;12.646;2023-06-05T03:23:29;4.90;;;2.78;;
78960;SDS011;68362;45.970;12.646;2023-06-05T03:25:33;4.22;;;2.30;;
78960;SDS011;68362;45.970;12.646;2023-06-05T03:26:35;4.10;;;2.38;;
78960;SDS011;68362;45.970;12.646;2023-06-05T03:27:38;4.63;;;2.40;;
78960;SDS011;68362;45.970;12.646;2023-06-05T03:28:40;9.52;;;2.47;;
78960;SDS011;68362;45.970;12.646;2023-06-05T03:29:42;4.45;;;2.67;;
78960;SDS011;68362;45.970;12.646;2023-06-05T03:30:45;4.85;;;2.85;;
78960;SDS011;68362;45.970;12.646;2023-06-05T03:31:47;4.53;;;2.55;;
78960;SDS011;68362;45.970;12.646;2023-06-05T03:32:49;3.60;;;2.58;;
78960;SDS011;68362;45.970;12.646;2023-06-05T03:33:51;4.75;;;2.60;;
78960;SDS011;68362;45.970;12.646;2023-06-05T03:34:54;4.13;;;2.78;;
78960;SDS011;68362;45.970;12.646;2023-06-05T03:35:56;3.38;;;2.33;;
78960;SDS011;68362;45.970;12.646;2023-06-05T03:36:58;3.85;;;2.60;;
78960;SDS011;68362;45.970;12.646;2023-06-05T03:38:01;3.33;;;2.45;;
78960;SDS011;68362;45.970;12.646;2023-06-05T03:39:03;4.78;;;2.70;;
78960;SDS011;68362;45.970;12.646;2023-06-05T03:40:05;3.63;;;2.20;;
78960;SDS011;68362;45.970;12.646;2023-06-05T03:41:08;5.28;;;2.65;;
78960;SDS011;68362;45.970;12.646;2023-06-05T03:43:13;3.63;;;2.08;;
78960;SDS011;68362;45.970;12.646;2023-06-05T03:44:15;3.53;;;2.30;;
78960;SDS011;68362;45.970;12.646;2023-06-05T03:45:18;3.65;;;2.13;;
78960;SDS011;68362;45.970;12.646;2023-06-05T03:46:20;3.33;;;2.70;;
78960;SDS011;68362;45.970;12.646;2023-06-05T03:47:22;3.22;;;2.67;;
78960;SDS011;68362;45.970;12.646;2023-06-05T03:48:25;3.25;;;2.22;;
78960;SDS011;68362;45.970;12.646;2023-06-05T03:49:28;3.50;;;2.08;;
78960;SDS011;68362;45.970;12.646;2023-06-05T03:50:31;3.53;;;2.15;;
78960;SDS011;68362;45.970;12.646;2023-06-05T03:51:35;3.22;;;2.30;;
78960;SDS011;68362;45.970;12.646;2023-06-05T03:52:37;3.65;;;2.10;;
78960;SDS011;68362;45.970;12.646;2023-06-05T03:53:41;2.97;;;2.20;;
78960;SDS011;68362;45.970;12.646;2023-06-05T03:54:44;2.90;;;1.80;;
78960;SDS011;68362;45.970;12.646;2023-06-05T03:55:48;3.35;;;2.50;;
78960;SDS011;68362;45.970;12.646;2023-06-05T03:56:51;3.25;;;2.22;;
78960;SDS011;68362;45.970;12.646;2023-06-05T03:57:54;3.72;;;1.95;;
78960;SDS011;68362;45.970;12.646;2023-06-05T03:58:58;2.55;;;2.10;;
78960;SDS011;68362;45.970;12.646;2023-06-05T04:00:00;4.03;;;2.20;;
78960;SDS011;68362;45.970;12.646;2023-06-05T04:01:02;3.25;;;2.20;;
78960;SDS011;68362;45.970;12.646;2023-06-05T04:02:04;2.95;;;1.90;;
78960;SDS011;68362;45.970;12.646;2023-06-05T04:03:08;3.78;;;2.38;;
78960;SDS011;68362;45.970;12.646;2023-06-05T04:04:11;2.90;;;2.03;;
78960;SDS011;68362;45.970;12.646;2023-06-05T04:05:13;4.50;;;2.65;;
78960;SDS011;68362;45.970;12.646;2023-06-05T04:06:16;6.45;;;2.72;;
78960;SDS011;68362;45.970;12.646;2023-06-05T04:07:18;6.45;;;2.17;;
78960;SDS011;68362;45.970;12.646;2023-06-05T04:08:20;4.72;;;2.38;;
78960;SDS011;68362;45.970;12.646;2023-06-05T04:09:22;4.00;;;1.92;;
78960;SDS011;68362;45.970;12.646;2023-06-05T04:10:24;3.00;;;2.33;;
78960;SDS011;68362;45.970;12.646;2023-06-05T04:11:26;6.63;;;2.00;;
78960;SDS011;68362;45.970;12.646;2023-06-05T04:12:29;3.80;;;2.13;;
78960;SDS011;68362;45.970;12.646;2023-06-05T04:13:31;3.22;;;2.10;;
78960;SDS011;68362;45.970;12.646;2023-06-05T04:14:33;3.85;;;2.45;;
78960;SDS011;68362;45.970;12.646;2023-06-05T04:15:35;2.85;;;1.88;;
78960;SDS011;68362;45.970;12.646;2023-06-05T04:16:38;3.20;;;2.50;;
78960;SDS011;68362;45.970;12.646;2023-06-05T04:17:41;4.18;;;2.63;;
78960;SDS011;68362;45.970;12.646;2023-06-05T04:18:43;3.05;;;2.05;;
78960;SDS011;68362;45.970;12.646;2023-06-05T04:19:45;5.07;;;2.10;;
78960;SDS011;68362;45.970;12.646;2023-06-05T04:20:47;3.22;;;2.20;;
78960;SDS011;68362;45.970;12.646;2023-06-05T04:21:49;2.53;;;1.80;;
78960;SDS011;68362;45.970;12.646;2023-06-05T04:22:53;4.55;;;2.25;;
78960;SDS011;68362;45.970;12.646;2023-06-05T04:23:55;2.60;;;1.92;;
78960;SDS011;68362;45.970;12.646;2023-06-05T04:24:57;3.00;;;2.08;;
78960;SDS011;68362;45.970;12.646;2023-06-05T04:25:59;3.63;;;1.90;;
78960;SDS011;68362;45.970;12.646;2023-06-05T04:27:01;3.50;;;2.15;;
78960;SDS011;68362;45.970;12.646;2023-06-05T04:28:04;3.33;;;1.98;;
78960;SDS011;68362;45.970;12.646;2023-06-05T04:29:06;2.35;;;2.03;;
78960;SDS011;68362;45.970;12.646;2023-06-05T04:30:14;2.67;;;1.90;;
78960;SDS011;68362;45.970;12.646;2023-06-05T04:31:16;3.08;;;2.33;;
78960;SDS011;68362;45.970;12.646;2023-06-05T04:32:18;3.05;;;2.08;;
78960;SDS011;68362;45.970;12.646;2023-06-05T04:33:20;3.20;;;2.10;;
78960;SDS011;68362;45.970;12.646;2023-06-05T04:34:22;2.67;;;1.85;;
78960;SDS011;68362;45.970;12.646;2023-06-05T04:35:25;3.65;;;2.20;;
78960;SDS011;68362;45.970;12.646;2023-06-05T04:36:28;3.35;;;2.28;;
78960;SDS011;68362;45.970;12.646;2023-06-05T04:37:30;4.25;;;2.03;;
78960;SDS011;68362;45.970;12.646;2023-06-05T04:38:32;2.47;;;1.80;;
78960;SDS011;68362;45.970;12.646;2023-06-05T04:39:36;4.28;;;2.05;;
78960;SDS011;68362;45.970;12.646;2023-06-05T04:40:38;4.85;;;2.88;;
78960;SDS011;68362;45.970;12.646;2023-06-05T04:41:43;3.42;;;2.30;;
78960;SDS011;68362;45.970;12.646;2023-06-05T04:43:03;3.80;;;2.78;;
78960;SDS011;68362;45.970;12.646;2023-06-05T04:44:06;3.90;;;2.65;;
78960;SDS011;68362;45.970;12.646;2023-06-05T04:45:08;3.22;;;2.47;;
78960;SDS011;68362;45.970;12.646;2023-06-05T04:46:10;3.78;;;2.08;;
78960;SDS011;68362;45.970;12.646;2023-06-05T04:47:12;2.85;;;2.17;;
78960;SDS011;68362;45.970;12.646;2023-06-05T04:48:14;3.17;;;2.50;;
78960;SDS011;68362;45.970;12.646;2023-06-05T04:49:17;5.60;;;3.33;;
78960;SDS011;68362;45.970;12.646;2023-06-05T04:50:26;4.15;;;2.78;;
78960;SDS011;68362;45.970;12.646;2023-06-05T04:51:29;4.22;;;2.63;;
78960;SDS011;68362;45.970;12.646;2023-06-05T04:52:31;5.03;;;2.83;;
78960;SDS011;68362;45.970;12.646;2023-06-05T04:53:37;3.10;;;2.17;;
78960;SDS011;68362;45.970;12.646;2023-06-05T04:54:39;2.85;;;2.40;;
78960;SDS011;68362;45.970;12.646;2023-06-05T04:55:41;3.95;;;2.60;;
78960;SDS011;68362;45.970;12.646;2023-06-05T04:56:43;4.25;;;3.45;;
78960;SDS011;68362;45.970;12.646;2023-06-05T04:57:47;3.45;;;2.28;;
78960;SDS011;68362;45.970;12.646;2023-06-05T04:58:50;3.38;;;2.17;;
78960;SDS011;68362;45.970;12.646;2023-06-05T04:59:54;3.22;;;2.67;;
78960;SDS011;68362;45.970;12.646;2023-06-05T05:00:56;3.50;;;2.50;;
78960;SDS011;68362;45.970;12.646;2023-06-05T05:02:06;4.97;;;2.60;;
78960;SDS011;68362;45.970;12.646;2023-06-05T05:04:15;6.43;;;2.70;;
78960;SDS011;68362;45.970;12.646;2023-06-05T05:05:17;3.53;;;2.72;;
78960;SDS011;68362;45.970;12.646;2023-06-05T05:06:19;3.72;;;2.70;;
78960;SDS011;68362;45.970;12.646;2023-06-05T05:07:22;3.55;;;2.58;;
78960;SDS011;68362;45.970;12.646;2023-06-05T05:08:27;3.97;;;2.72;;
78960;SDS011;68362;45.970;12.646;2023-06-05T05:09:30;3.85;;;2.75;;
78960;SDS011;68362;45.970;12.646;2023-06-05T05:10:32;3.70;;;2.67;;
78960;SDS011;68362;45.970;12.646;2023-06-05T05:11:34;3.03;;;2.25;;
78960;SDS011;68362;45.970;12.646;2023-06-05T05:12:37;2.83;;;2.03;;
78960;SDS011;68362;45.970;12.646;2023-06-05T05:13:40;3.63;;;2.53;;
78960;SDS011;68362;45.970;12.646;2023-06-05T05:14:43;3.90;;;2.40;;
78960;SDS011;68362;45.970;12.646;2023-06-05T05:15:46;2.83;;;1.88;;
78960;SDS011;68362;45.970;12.646;2023-06-05T05:16:49;2.72;;;1.85;;
78960;SDS011;68362;45.970;12.646;2023-06-05T05:17:52;4.22;;;2.17;;
78960;SDS011;68362;45.970;12.646;2023-06-05T05:18:54;2.58;;;1.90;;
78960;SDS011;68362;45.970;12.646;2023-06-05T05:19:56;2.58;;;2.13;;
78960;SDS011;68362;45.970;12.646;2023-06-05T05:20:59;4.22;;;2.35;;
78960;SDS011;68362;45.970;12.646;2023-06-05T05:22:01;3.10;;;2.15;;
78960;SDS011;68362;45.970;12.646;2023-06-05T05:23:03;7.38;;;1.88;;
78960;SDS011;68362;45.970;12.646;2023-06-05T05:24:05;3.75;;;1.90;;
78960;SDS011;68362;45.970;12.646;2023-06-05T05:25:08;3.47;;;2.30;;
78960;SDS011;68362;45.970;12.646;2023-06-05T05:26:11;3.03;;;1.83;;
78960;SDS011;68362;45.970;12.646;2023-06-05T05:27:13;2.25;;;1.70;;
78960;SDS011;68362;45.970;12.646;2023-06-05T05:28:15;3.58;;;1.77;;
78960;SDS011;68362;45.970;12.646;2023-06-05T05:29:17;4.10;;;2.22;;
78960;SDS011;68362;45.970;12.646;2023-06-05T05:30:20;2.85;;;1.95;;
78960;SDS011;68362;45.970;12.646;2023-06-05T05:31:22;3.10;;;1.85;;
78960;SDS011;68362;45.970;12.646;2023-06-05T05:32:24;3.90;;;2.17;;
78960;SDS011;68362;45.970;12.646;2023-06-05T05:33:26;2.65;;;1.88;;
78960;SDS011;68362;45.970;12.646;2023-06-05T05:34:29;3.80;;;2.10;;
78960;SDS011;68362;45.970;12.646;2023-06-05T05:35:31;3.65;;;2.13;;
78960;SDS011;68362;45.970;12.646;2023-06-05T05:36:33;3.88;;;2.20;;
78960;SDS011;68362;45.970;12.646;2023-06-05T05:37:35;5.35;;;2.42;;
78960;SDS011;68362;45.970;12.646;2023-06-05T05:38:37;2.00;;;1.73;;
78960;SDS011;68362;45.970;12.646;2023-06-05T05:39:39;4.10;;;2.22;;
78960;SDS011;68362;45.970;12.646;2023-06-05T05:40:41;2.92;;;2.15;;
78960;SDS011;68362;45.970;12.646;2023-06-05T05:41:43;2.70;;;1.83;;
78960;SDS011;68362;45.970;12.646;2023-06-05T05:42:46;4.95;;;2.53;;
78960;SDS011;68362;45.970;12.646;2023-06-05T05:43:48;3.83;;;1.90;;
78960;SDS011;68362;45.970;12.646;2023-06-05T05:44:50;3.33;;;1.80;;
78960;SDS011;68362;45.970;12.646;2023-06-05T05:45:52;3.22;;;2.65;;
78960;SDS011;68362;45.970;12.646;2023-06-05T05:46:54;3.13;;;2.00;;
78960;SDS011;68362;45.970;12.646;2023-06-05T05:47:57;4.13;;;2.00;;
78960;SDS011;68362;45.970;12.646;2023-06-05T05:48:59;2.58;;;2.08;;
78960;SDS011;68362;45.970;12.646;2023-06-05T05:50:01;2.53;;;1.58;;
78960;SDS011;68362;45.970;12.646;2023-06-05T05:51:04;3.08;;;2.55;;
78960;SDS011;68362;45.970;12.646;2023-06-05T05:52:08;2.97;;;1.92;;
78960;SDS011;68362;45.970;12.646;2023-06-05T05:53:11;2.78;;;1.98;;
78960;SDS011;68362;45.970;12.646;2023-06-05T05:54:12;3.38;;;1.83;;
78960;SDS011;68362;45.970;12.646;2023-06-05T05:55:15;4.80;;;1.83;;
78960;SDS011;68362;45.970;12.646;2023-06-05T05:56:17;2.55;;;1.77;;
78960;SDS011;68362;45.970;12.646;2023-06-05T05:57:19;3.47;;;2.00;;
78960;SDS011;68362;45.970;12.646;2023-06-05T05:58:22;3.47;;;2.03;;
78960;SDS011;68362;45.970;12.646;2023-06-05T05:59:24;3.63;;;2.03;;
78960;SDS011;68362;45.970;12.646;2023-06-05T06:00:26;4.05;;;2.33;;
78960;SDS011;68362;45.970;12.646;2023-06-05T06:01:30;4.63;;;2.10;;
78960;SDS011;68362;45.970;12.646;2023-06-05T06:02:33;4.70;;;2.10;;
78960;SDS011;68362;45.970;12.646;2023-06-05T06:03:36;2.70;;;1.77;;
78960;SDS011;68362;45.970;12.646;2023-06-05T06:04:39;2.95;;;1.70;;
78960;SDS011;68362;45.970;12.646;2023-06-05T06:05:42;2.35;;;1.55;;
78960;SDS011;68362;45.970;12.646;2023-06-05T06:06:44;2.47;;;1.52;;
78960;SDS011;68362;45.970;12.646;2023-06-05T06:07:50;2.97;;;1.77;;
78960;SDS011;68362;45.970;12.646;2023-06-05T06:08:52;4.90;;;2.05;;
78960;SDS011;68362;45.970;12.646;2023-06-05T06:09:54;3.95;;;1.75;;
78960;SDS011;68362;45.970;12.646;2023-06-05T06:10:56;3.00;;;2.08;;
78960;SDS011;68362;45.970;12.646;2023-06-05T06:11:59;3.58;;;1.85;;
78960;SDS011;68362;45.970;12.646;2023-06-05T06:13:04;2.65;;;1.80;;
78960;SDS011;68362;45.970;12.646;2023-06-05T06:14:07;2.33;;;1.58;;
78960;SDS011;68362;45.970;12.646;2023-06-05T06:15:11;2.47;;;1.83;;
78960;SDS011;68362;45.970;12.646;2023-06-05T06:16:14;5.32;;;1.90;;
78960;SDS011;68362;45.970;12.646;2023-06-05T06:17:16;2.75;;;2.10;;
78960;SDS011;68362;45.970;12.646;2023-06-05T06:18:18;2.53;;;1.92;;
78960;SDS011;68362;45.970;12.646;2023-06-05T06:19:21;2.63;;;1.83;;
78960;SDS011;68362;45.970;12.646;2023-06-05T06:20:25;3.63;;;2.03;;
78960;SDS011;68362;45.970;12.646;2023-06-05T06:21:29;3.67;;;2.40;;
78960;SDS011;68362;45.970;12.646;2023-06-05T06:22:31;3.00;;;1.73;;
78960;SDS011;68362;45.970;12.646;2023-06-05T06:23:33;2.60;;;1.83;;
78960;SDS011;68362;45.970;12.646;2023-06-05T06:24:35;3.00;;;1.90;;
78960;SDS011;68362;45.970;12.646;2023-06-05T06:25:37;3.13;;;1.83;;
78960;SDS011;68362;45.970;12.646;2023-06-05T06:26:40;3.80;;;1.95;;